sensor_id;sensor_type;location;lat;lon;timestamp;pressure;altitude;pressure_sealevel;temperature;humidity
11049;BME280;5577;42.706;23.160;2023-01-31T00:00:09;93649.34;;;0.56;100.00
11049;BME280;5577;42.706;23.160;2023-01-31T00:02:54;93650.31;;;0.60;100.00
11049;BME280;5577;42.706;23.160;2023-01-31T00:05:38;93643.75;;;0.63;100.00
11049;BME280;5577;42.706;23.160;2023-01-31T00:08:22;93620.53;;;0.31;100.00
11049;BME280;5577;42.706;23.160;2023-01-31T00:11:06;93647.22;;;0.36;100.00
11049;BME280;5577;42.706;23.160;2023-01-31T00:13:52;93646.13;;;0.15;100.00
11049;BME280;5577;42.706;23.160;2023-01-31T00:16:36;93618.69;;;-0.05;100.00
11049;BME280;5577;42.706;23.160;2023-01-31T00:19:20;93667.88;;;0.19;100.00
11049;BME280;5577;42.706;23.160;2023-01-31T00:22:04;93667.31;;;0.22;100.00
11049;BME280;5577;42.706;23.160;2023-01-31T00:24:48;93661.72;;;0.15;100.00
11049;BME280;5577;42.706;23.160;2023-01-31T00:27:32;93664.63;;;0.14;100.00
11049;BME280;5577;42.706;23.160;2023-01-31T00:30:16;93657.94;;;0.21;100.00
11049;BME280;5577;42.706;23.160;2023-01-31T00:33:00;93658.06;;;0.16;100.00
11049;BME280;5577;42.706;23.160;2023-01-31T00:35:44;93644.66;;;0.09;100.00
11049;BME280;5577;42.706;23.160;2023-01-31T00:38:28;93651.31;;;0.15;100.00
11049;BME280;5577;42.706;23.160;2023-01-31T00:41:12;93644.47;;;0.19;100.00
11049;BME280;5577;42.706;23.160;2023-01-31T00:43:56;93653.09;;;0.28;100.00
11049;BME280;5577;42.706;23.160;2023-01-31T00:46:41;93654.81;;;0.33;100.00
11049;BME280;5577;42.706;23.160;2023-01-31T00:49:25;93656.19;;;0.30;100.00
11049;BME280;5577;42.706;23.160;2023-01-31T00:52:09;93658.66;;;0.35;100.00
11049;BME280;5577;42.706;23.160;2023-01-31T00:54:53;93647.53;;;0.21;100.00
11049;BME280;5577;42.706;23.160;2023-01-31T00:57:37;93678.66;;;0.26;100.00
11049;BME280;5577;42.706;23.160;2023-01-31T01:00:21;93684.75;;;0.22;100.00
11049;BME280;5577;42.706;23.160;2023-01-31T01:03:05;93688.69;;;0.19;100.00
11049;BME280;5577;42.706;23.160;2023-01-31T01:05:49;93696.50;;;0.19;100.00
11049;BME280;5577;42.706;23.160;2023-01-31T01:08:33;93691.88;;;0.16;100.00
11049;BME280;5577;42.706;23.160;2023-01-31T01:11:26;93679.16;;;0.15;100.00
11049;BME280;5577;42.706;23.160;2023-01-31T01:14:11;93679.47;;;-0.01;100.00
11049;BME280;5577;42.706;23.160;2023-01-31T01:16:54;93678.25;;;-0.03;100.00
11049;BME280;5577;42.706;23.160;2023-01-31T01:19:40;93676.69;;;-0.18;100.00
11049;BME280;5577;42.706;23.160;2023-01-31T01:22:24;93680.72;;;-0.25;100.00
11049;BME280;5577;42.706;23.160;2023-01-31T01:25:09;93687.00;;;-0.40;100.00
11049;BME280;5577;42.706;23.160;2023-01-31T01:27:53;93670.34;;;-0.39;100.00
11049;BME280;5577;42.706;23.160;2023-01-31T01:30:38;93667.47;;;-0.37;100.00
11049;BME280;5577;42.706;23.160;2023-01-31T01:33:22;93657.56;;;-0.35;100.00
11049;BME280;5577;42.706;23.160;2023-01-31T01:36:08;93662.81;;;-0.27;100.00
11049;BME280;5577;42.706;23.160;2023-01-31T01:38:54;93672.19;;;-0.26;100.00
11049;BME280;5577;42.706;23.160;2023-01-31T01:41:38;93672.75;;;-0.15;100.00
11049;BME280;5577;42.706;23.160;2023-01-31T01:44:51;93674.69;;;-0.07;100.00
11049;BME280;5577;42.706;23.160;2023-01-31T01:47:51;93667.06;;;-0.04;100.00
11049;BME280;5577;42.706;23.160;2023-01-31T01:50:44;93665.59;;;-0.10;100.00
11049;BME280;5577;42.706;23.160;2023-01-31T01:53:32;93678.13;;;0.02;100.00
11049;BME280;5577;42.706;23.160;2023-01-31T01:56:28;93657.97;;;0.08;100.00
11049;BME280;5577;42.706;23.160;2023-01-31T01:59:25;93670.03;;;0.03;100.00
11049;BME280;5577;42.706;23.160;2023-01-31T02:02:12;93674.38;;;0.08;100.00
11049;BME280;5577;42.706;23.160;2023-01-31T02:04:57;93680.31;;;0.08;100.00
11049;BME280;5577;42.706;23.160;2023-01-31T02:07:41;93689.59;;;0.01;100.00
11049;BME280;5577;42.706;23.160;2023-01-31T02:10:43;93680.31;;;0.08;100.00
11049;BME280;5577;42.706;23.160;2023-01-31T02:13:30;93687.84;;;0.10;100.00
11049;BME280;5577;42.706;23.160;2023-01-31T02:16:14;93677.44;;;0.10;100.00
11049;BME280;5577;42.706;23.160;2023-01-31T02:18:59;93629.88;;;-0.18;100.00
11049;BME280;5577;42.706;23.160;2023-01-31T02:34:36;93686.94;;;0.28;100.00
11049;BME280;5577;42.706;23.160;2023-01-31T02:43:52;93687.53;;;0.25;100.00
11049;BME280;5577;42.706;23.160;2023-01-31T02:53:14;93706.50;;;0.39;100.00
11049;BME280;5577;42.706;23.160;2023-01-31T02:56:05;93717.69;;;0.40;100.00
11049;BME280;5577;42.706;23.160;2023-01-31T02:59:18;93728.88;;;0.40;100.00
11049;BME280;5577;42.706;23.160;2023-01-31T03:02:05;93726.84;;;0.37;100.00
11049;BME280;5577;42.706;23.160;2023-01-31T03:04:50;93726.97;;;0.32;100.00
11049;BME280;5577;42.706;23.160;2023-01-31T03:07:37;93715.47;;;0.33;100.00
11049;BME280;5577;42.706;23.160;2023-01-31T03:13:34;93736.09;;;0.30;100.00
11049;BME280;5577;42.706;23.160;2023-01-31T03:16:28;93736.78;;;0.22;100.00
11049;BME280;5577;42.706;23.160;2023-01-31T03:19:39;93740.94;;;0.23;100.00
11049;BME280;5577;42.706;23.160;2023-01-31T03:22:31;93734.69;;;0.24;100.00
11049;BME280;5577;42.706;23.160;2023-01-31T03:25:19;93752.91;;;0.24;100.00
11049;BME280;5577;42.706;23.160;2023-01-31T03:28:10;93711.19;;;-0.12;100.00
11049;BME280;5577;42.706;23.160;2023-01-31T03:31:04;93744.13;;;0.06;100.00
11049;BME280;5577;42.706;23.160;2023-01-31T03:33:59;93762.34;;;0.20;100.00
11049;BME280;5577;42.706;23.160;2023-01-31T03:36:54;93769.97;;;0.16;100.00
11049;BME280;5577;42.706;23.160;2023-01-31T03:39:45;93786.75;;;0.24;100.00
11049;BME280;5577;42.706;23.160;2023-01-31T03:45:37;93777.56;;;0.26;100.00
11049;BME280;5577;42.706;23.160;2023-01-31T03:48:25;93782.28;;;0.24;100.00
11049;BME280;5577;42.706;23.160;2023-01-31T03:51:17;93781.13;;;0.30;100.00
11049;BME280;5577;42.706;23.160;2023-01-31T03:54:06;93778.66;;;0.25;100.00
11049;BME280;5577;42.706;23.160;2023-01-31T03:57:11;93769.97;;;0.16;100.00
11049;BME280;5577;42.706;23.160;2023-01-31T03:59:58;93777.09;;;0.24;100.00
11049;BME280;5577;42.706;23.160;2023-01-31T04:02:44;93778.72;;;0.20;100.00
11049;BME280;5577;42.706;23.160;2023-01-31T04:05:31;93783.66;;;0.22;100.00
11049;BME280;5577;42.706;23.160;2023-01-31T04:08:16;93789.13;;;0.20;100.00
11049;BME280;5577;42.706;23.160;2023-01-31T04:11:03;93800.41;;;0.16;100.00
11049;BME280;5577;42.706;23.160;2023-01-31T04:13:48;93805.91;;;0.14;100.00
11049;BME280;5577;42.706;23.160;2023-01-31T04:16:32;93811.22;;;0.09;100.00
11049;BME280;5577;42.706;23.160;2023-01-31T04:19:16;93809.69;;;0.08;100.00
11049;BME280;5577;42.706;23.160;2023-01-31T04:21:59;93807.66;;;0.05;100.00
11049;BME280;5577;42.706;23.160;2023-01-31T04:24:43;93812.06;;;0.04;100.00
11049;BME280;5577;42.706;23.160;2023-01-31T04:27:27;93806.75;;;-0.04;100.00
11049;BME280;5577;42.706;23.160;2023-01-31T04:30:11;93798.66;;;-0.16;100.00
11049;BME280;5577;42.706;23.160;2023-01-31T04:32:56;93801.72;;;-0.28;100.00
11049;BME280;5577;42.706;23.160;2023-01-31T04:35:40;93785.13;;;-0.45;100.00
11049;BME280;5577;42.706;23.160;2023-01-31T04:38:24;93764.63;;;-0.47;100.00
11049;BME280;5577;42.706;23.160;2023-01-31T04:41:08;93815.13;;;-0.21;100.00
11049;BME280;5577;42.706;23.160;2023-01-31T04:43:52;93805.84;;;-0.27;100.00
11049;BME280;5577;42.706;23.160;2023-01-31T04:46:35;93816.19;;;-0.22;100.00
11049;BME280;5577;42.706;23.160;2023-01-31T04:49:19;93787.16;;;-0.42;100.00
11049;BME280;5577;42.706;23.160;2023-01-31T04:52:04;93815.34;;;-0.17;100.00
11049;BME280;5577;42.706;23.160;2023-01-31T04:54:48;93814.84;;;-0.19;100.00
11049;BME280;5577;42.706;23.160;2023-01-31T04:57:32;93786.56;;;-0.39;100.00
11049;BME280;5577;42.706;23.160;2023-01-31T05:00:16;93822.56;;;-0.14;100.00
11049;BME280;5577;42.706;23.160;2023-01-31T05:03:01;93810.88;;;-0.17;100.00
11049;BME280;5577;42.706;23.160;2023-01-31T05:05:49;93801.75;;;-0.14;100.00
11049;BME280;5577;42.706;23.160;2023-01-31T05:08:34;93795.28;;;-0.17;100.00
11049;BME280;5577;42.706;23.160;2023-01-31T05:11:18;93815.22;;;-0.12;100.00
11049;BME280;5577;42.706;23.160;2023-01-31T05:14:02;93831.06;;;-0.09;100.00
11049;BME280;5577;42.706;23.160;2023-01-31T05:16:46;93822.38;;;-0.04;100.00
11049;BME280;5577;42.706;23.160;2023-01-31T05:19:31;93813.81;;;-0.05;100.00
11049;BME280;5577;42.706;23.160;2023-01-31T05:22:15;93814.22;;;0.03;100.00
11049;BME280;5577;42.706;23.160;2023-01-31T05:24:59;93816.88;;;-0.03;100.00
11049;BME280;5577;42.706;23.160;2023-01-31T05:27:43;93829.53;;;0.04;100.00
11049;BME280;5577;42.706;23.160;2023-01-31T05:30:27;93831.16;;;0.00;100.00
11049;BME280;5577;42.706;23.160;2023-01-31T05:33:12;93845.03;;;0.09;100.00
11049;BME280;5577;42.706;23.160;2023-01-31T05:35:57;93844.94;;;0.14;100.00
11049;BME280;5577;42.706;23.160;2023-01-31T05:38:41;93846.69;;;0.19;100.00
11049;BME280;5577;42.706;23.160;2023-01-31T05:41:24;93843.50;;;0.22;100.00
11049;BME280;5577;42.706;23.160;2023-01-31T05:44:08;93852.00;;;0.27;100.00
11049;BME280;5577;42.706;23.160;2023-01-31T05:46:53;93851.72;;;0.29;100.00
11049;BME280;5577;42.706;23.160;2023-01-31T05:49:38;93860.88;;;0.26;100.00
11049;BME280;5577;42.706;23.160;2023-01-31T05:52:22;93857.19;;;0.27;100.00
11049;BME280;5577;42.706;23.160;2023-01-31T05:55:06;93861.56;;;0.32;100.00
11049;BME280;5577;42.706;23.160;2023-01-31T05:57:52;93856.53;;;0.35;100.00
11049;BME280;5577;42.706;23.160;2023-01-31T06:00:37;93856.44;;;0.40;100.00
11049;BME280;5577;42.706;23.160;2023-01-31T06:03:21;93869.94;;;0.42;100.00
11049;BME280;5577;42.706;23.160;2023-01-31T06:06:05;93869.63;;;0.44;100.00
11049;BME280;5577;42.706;23.160;2023-01-31T06:08:49;93871.78;;;0.42;100.00
11049;BME280;5577;42.706;23.160;2023-01-31T06:11:33;93868.78;;;0.48;100.00
11049;BME280;5577;42.706;23.160;2023-01-31T06:14:17;93879.13;;;0.53;100.00
11049;BME280;5577;42.706;23.160;2023-01-31T06:17:01;93864.06;;;0.50;100.00
11049;BME280;5577;42.706;23.160;2023-01-31T06:19:45;93868.09;;;0.56;100.00
11049;BME280;5577;42.706;23.160;2023-01-31T06:22:29;93864.66;;;0.47;100.00
11049;BME280;5577;42.706;23.160;2023-01-31T06:25:13;93875.16;;;0.56;100.00
11049;BME280;5577;42.706;23.160;2023-01-31T06:27:56;93871.97;;;0.59;100.00
11049;BME280;5577;42.706;23.160;2023-01-31T06:30:41;93875.34;;;0.59;100.00
11049;BME280;5577;42.706;23.160;2023-01-31T06:33:25;93878.16;;;0.63;100.00
11049;BME280;5577;42.706;23.160;2023-01-31T06:36:09;93875.63;;;0.71;100.00
11049;BME280;5577;42.706;23.160;2023-01-31T06:38:53;93868.03;;;0.61;100.00
11049;BME280;5577;42.706;23.160;2023-01-31T06:41:37;93873.81;;;0.58;100.00
11049;BME280;5577;42.706;23.160;2023-01-31T06:44:21;93873.50;;;0.60;100.00
11049;BME280;5577;42.706;23.160;2023-01-31T06:47:05;93869.25;;;0.64;100.00
11049;BME280;5577;42.706;23.160;2023-01-31T06:49:49;93855.16;;;0.65;100.00
11049;BME280;5577;42.706;23.160;2023-01-31T06:52:32;93872.38;;;0.66;100.00
11049;BME280;5577;42.706;23.160;2023-01-31T06:55:16;93873.31;;;0.70;100.00
11049;BME280;5577;42.706;23.160;2023-01-31T06:58:00;93858.44;;;0.70;100.00
11049;BME280;5577;42.706;23.160;2023-01-31T07:00:44;93876.03;;;0.78;100.00
11049;BME280;5577;42.706;23.160;2023-01-31T07:03:28;93880.53;;;0.86;100.00
11049;BME280;5577;42.706;23.160;2023-01-31T07:06:12;93881.41;;;0.95;100.00
11049;BME280;5577;42.706;23.160;2023-01-31T07:08:56;93841.28;;;0.83;100.00
11049;BME280;5577;42.706;23.160;2023-01-31T07:11:40;93871.94;;;0.99;100.00
11049;BME280;5577;42.706;23.160;2023-01-31T07:14:24;93888.41;;;1.08;100.00
11049;BME280;5577;42.706;23.160;2023-01-31T07:17:08;93892.38;;;1.06;100.00
11049;BME280;5577;42.706;23.160;2023-01-31T07:19:52;93897.50;;;0.97;100.00
11049;BME280;5577;42.706;23.160;2023-01-31T07:22:36;93908.88;;;1.01;100.00
11049;BME280;5577;42.706;23.160;2023-01-31T07:25:20;93919.31;;;1.01;100.00
11049;BME280;5577;42.706;23.160;2023-01-31T07:28:04;93907.94;;;0.97;100.00
11049;BME280;5577;42.706;23.160;2023-01-31T07:30:48;93900.31;;;1.01;100.00
11049;BME280;5577;42.706;23.160;2023-01-31T07:33:34;93866.84;;;0.81;100.00
11049;BME280;5577;42.706;23.160;2023-01-31T07:36:18;93912.16;;;1.07;100.00
11049;BME280;5577;42.706;23.160;2023-01-31T07:39:07;93876.28;;;0.90;100.00
11049;BME280;5577;42.706;23.160;2023-01-31T07:41:51;93901.84;;;1.02;100.00
11049;BME280;5577;42.706;23.160;2023-01-31T07:44:34;93913.03;;;1.16;100.00
11049;BME280;5577;42.706;23.160;2023-01-31T07:47:18;93913.63;;;1.13;100.00
11049;BME280;5577;42.706;23.160;2023-01-31T07:50:03;93913.78;;;1.30;100.00
11049;BME280;5577;42.706;23.160;2023-01-31T07:52:47;93893.88;;;1.34;100.00
11049;BME280;5577;42.706;23.160;2023-01-31T07:55:32;93915.66;;;1.51;100.00
11049;BME280;5577;42.706;23.160;2023-01-31T07:58:16;93923.81;;;1.36;100.00
11049;BME280;5577;42.706;23.160;2023-01-31T08:01:00;93929.88;;;1.32;100.00
11049;BME280;5577;42.706;23.160;2023-01-31T08:04:05;93887.75;;;1.16;100.00
11049;BME280;5577;42.706;23.160;2023-01-31T08:06:53;93885.38;;;1.28;100.00
11049;BME280;5577;42.706;23.160;2023-01-31T08:09:38;93906.78;;;1.39;100.00
11049;BME280;5577;42.706;23.160;2023-01-31T08:12:22;93899.97;;;1.29;100.00
11049;BME280;5577;42.706;23.160;2023-01-31T08:15:07;93909.34;;;1.30;100.00
11049;BME280;5577;42.706;23.160;2023-01-31T08:17:51;93863.75;;;1.28;100.00
11049;BME280;5577;42.706;23.160;2023-01-31T08:20:35;93908.16;;;1.72;100.00
11049;BME280;5577;42.706;23.160;2023-01-31T08:23:26;93906.38;;;2.03;100.00
11049;BME280;5577;42.706;23.160;2023-01-31T08:26:15;93892.72;;;2.06;100.00
11049;BME280;5577;42.706;23.160;2023-01-31T08:29:00;93910.47;;;1.95;100.00
11049;BME280;5577;42.706;23.160;2023-01-31T08:31:44;93909.53;;;1.91;100.00
11049;BME280;5577;42.706;23.160;2023-01-31T08:34:28;93914.31;;;1.98;100.00
11049;BME280;5577;42.706;23.160;2023-01-31T08:37:12;93918.53;;;1.85;100.00
11049;BME280;5577;42.706;23.160;2023-01-31T08:39:56;93908.22;;;1.80;100.00
11049;BME280;5577;42.706;23.160;2023-01-31T08:42:40;93901.41;;;1.93;100.00
11049;BME280;5577;42.706;23.160;2023-01-31T08:45:24;93886.38;;;1.98;100.00
11049;BME280;5577;42.706;23.160;2023-01-31T08:48:08;93908.63;;;1.96;100.00
11049;BME280;5577;42.706;23.160;2023-01-31T08:50:51;93903.56;;;1.99;100.00
11049;BME280;5577;42.706;23.160;2023-01-31T08:53:43;93902.34;;;2.27;100.00
11049;BME280;5577;42.706;23.160;2023-01-31T08:56:27;93896.34;;;2.18;100.00
11049;BME280;5577;42.706;23.160;2023-01-31T08:59:11;93902.03;;;1.98;100.00
11049;BME280;5577;42.706;23.160;2023-01-31T09:01:55;93892.31;;;2.43;100.00
11049;BME280;5577;42.706;23.160;2023-01-31T09:04:39;93897.97;;;2.75;100.00
11049;BME280;5577;42.706;23.160;2023-01-31T09:07:23;93892.22;;;3.13;100.00
11049;BME280;5577;42.706;23.160;2023-01-31T09:10:08;93883.94;;;3.19;100.00
11049;BME280;5577;42.706;23.160;2023-01-31T09:12:52;93888.72;;;3.26;100.00
11049;BME280;5577;42.706;23.160;2023-01-31T09:15:36;93886.44;;;3.75;100.00
11049;BME280;5577;42.706;23.160;2023-01-31T09:18:20;93885.59;;;5.09;100.00
11049;BME280;5577;42.706;23.160;2023-01-31T09:21:22;93894.75;;;6.15;100.00
11049;BME280;5577;42.706;23.160;2023-01-31T09:24:08;93872.66;;;5.04;100.00
11049;BME280;5577;42.706;23.160;2023-01-31T09:26:53;93884.88;;;4.00;100.00
11049;BME280;5577;42.706;23.160;2023-01-31T09:29:38;93886.59;;;3.45;100.00
11049;BME280;5577;42.706;23.160;2023-01-31T09:32:22;93877.97;;;3.44;100.00
11049;BME280;5577;42.706;23.160;2023-01-31T09:35:06;93873.25;;;2.98;100.00
11049;BME280;5577;42.706;23.160;2023-01-31T09:37:50;93864.28;;;3.39;100.00
11049;BME280;5577;42.706;23.160;2023-01-31T09:40:37;93856.53;;;3.93;100.00
11049;BME280;5577;42.706;23.160;2023-01-31T09:43:27;93837.59;;;4.05;100.00
11049;BME280;5577;42.706;23.160;2023-01-31T09:46:16;93849.13;;;3.95;100.00
11049;BME280;5577;42.706;23.160;2023-01-31T09:49:07;93858.25;;;3.64;100.00
11049;BME280;5577;42.706;23.160;2023-01-31T09:52:03;93848.25;;;3.74;100.00
11049;BME280;5577;42.706;23.160;2023-01-31T09:54:47;93859.50;;;3.66;100.00
11049;BME280;5577;42.706;23.160;2023-01-31T10:00:55;93851.66;;;3.32;100.00
11049;BME280;5577;42.706;23.160;2023-01-31T10:03:58;93846.41;;;3.15;100.00
11049;BME280;5577;42.706;23.160;2023-01-31T10:07:04;93841.53;;;2.66;100.00
11049;BME280;5577;42.706;23.160;2023-01-31T10:12:49;93826.81;;;2.87;100.00
11049;BME280;5577;42.706;23.160;2023-01-31T10:15:42;93821.19;;;2.54;100.00
11049;BME280;5577;42.706;23.160;2023-01-31T10:18:33;93827.91;;;2.38;100.00
11049;BME280;5577;42.706;23.160;2023-01-31T10:21:35;93827.84;;;2.30;100.00
11049;BME280;5577;42.706;23.160;2023-01-31T10:24:23;93833.13;;;2.38;100.00
11049;BME280;5577;42.706;23.160;2023-01-31T10:27:16;93827.69;;;2.65;100.00
11049;BME280;5577;42.706;23.160;2023-01-31T10:30:04;93824.56;;;3.37;100.00
11049;BME280;5577;42.706;23.160;2023-01-31T10:32:59;93820.97;;;6.44;97.23
11049;BME280;5577;42.706;23.160;2023-01-31T10:35:47;93827.03;;;7.68;80.24
11049;BME280;5577;42.706;23.160;2023-01-31T10:38:37;93799.66;;;6.69;77.10
11049;BME280;5577;42.706;23.160;2023-01-31T10:41:37;93830.38;;;5.47;91.80
11049;BME280;5577;42.706;23.160;2023-01-31T10:47:52;93815.13;;;6.14;88.63
11049;BME280;5577;42.706;23.160;2023-01-31T10:56:31;93809.75;;;5.78;87.94
11049;BME280;5577;42.706;23.160;2023-01-31T10:59:36;93818.00;;;5.27;97.93
11049;BME280;5577;42.706;23.160;2023-01-31T11:02:27;93805.00;;;4.60;100.00
11049;BME280;5577;42.706;23.160;2023-01-31T11:05:18;93820.13;;;4.17;100.00
11049;BME280;5577;42.706;23.160;2023-01-31T11:11:27;93813.94;;;3.50;100.00
11049;BME280;5577;42.706;23.160;2023-01-31T11:14:17;93824.53;;;3.20;100.00
11049;BME280;5577;42.706;23.160;2023-01-31T11:17:04;93828.09;;;3.15;100.00
11049;BME280;5577;42.706;23.160;2023-01-31T11:19:52;93810.22;;;3.00;100.00
11049;BME280;5577;42.706;23.160;2023-01-31T11:22:37;93819.91;;;2.99;100.00
11049;BME280;5577;42.706;23.160;2023-01-31T11:25:23;93828.66;;;2.86;100.00
11049;BME280;5577;42.706;23.160;2023-01-31T11:28:34;93822.03;;;2.89;100.00
11049;BME280;5577;42.706;23.160;2023-01-31T11:31:32;93819.72;;;2.79;100.00
11049;BME280;5577;42.706;23.160;2023-01-31T11:34:27;93822.47;;;2.65;100.00
11049;BME280;5577;42.706;23.160;2023-01-31T11:37:16;93821.09;;;2.76;100.00
11049;BME280;5577;42.706;23.160;2023-01-31T11:40:16;93825.88;;;2.74;100.00
11049;BME280;5577;42.706;23.160;2023-01-31T11:46:04;93826.47;;;2.71;100.00
11049;BME280;5577;42.706;23.160;2023-01-31T11:48:50;93820.50;;;2.79;100.00
11049;BME280;5577;42.706;23.160;2023-01-31T11:51:34;93804.78;;;2.62;100.00
11049;BME280;5577;42.706;23.160;2023-01-31T11:54:28;93786.06;;;2.30;100.00
11049;BME280;5577;42.706;23.160;2023-01-31T11:57:15;93817.16;;;2.40;100.00
11049;BME280;5577;42.706;23.160;2023-01-31T12:00:04;93810.25;;;2.44;100.00
11049;BME280;5577;42.706;23.160;2023-01-31T12:03:06;93812.41;;;2.42;100.00
11049;BME280;5577;42.706;23.160;2023-01-31T12:06:03;93814.22;;;2.41;100.00
11049;BME280;5577;42.706;23.160;2023-01-31T12:08:52;93818.75;;;2.49;100.00
11049;BME280;5577;42.706;23.160;2023-01-31T12:11:36;93816.47;;;2.56;100.00
11049;BME280;5577;42.706;23.160;2023-01-31T12:14:21;93818.63;;;2.63;100.00
11049;BME280;5577;42.706;23.160;2023-01-31T12:17:15;93830.16;;;2.70;100.00
11049;BME280;5577;42.706;23.160;2023-01-31T12:28:44;93818.22;;;3.03;100.00
11049;BME280;5577;42.706;23.160;2023-01-31T12:31:44;93817.75;;;3.10;100.00
11049;BME280;5577;42.706;23.160;2023-01-31T12:35:11;93819.44;;;2.97;100.00
11049;BME280;5577;42.706;23.160;2023-01-31T12:44:29;93830.53;;;3.12;100.00
11049;BME280;5577;42.706;23.160;2023-01-31T12:50:49;93827.91;;;3.12;100.00
11049;BME280;5577;42.706;23.160;2023-01-31T12:59:17;93822.22;;;2.92;100.00
11049;BME280;5577;42.706;23.160;2023-01-31T13:11:18;93803.94;;;3.01;100.00
11049;BME280;5577;42.706;23.160;2023-01-31T13:14:11;93798.91;;;5.06;100.00
11049;BME280;5577;42.706;23.160;2023-01-31T13:17:01;93803.47;;;3.50;100.00
11049;BME280;5577;42.706;23.160;2023-01-31T13:19:48;93817.22;;;4.10;100.00
11049;BME280;5577;42.706;23.160;2023-01-31T13:22:42;93810.31;;;6.16;100.00
11049;BME280;5577;42.706;23.160;2023-01-31T13:28:25;93807.56;;;5.80;99.02
11049;BME280;5577;42.706;23.160;2023-01-31T13:31:18;93822.09;;;5.98;94.75
11049;BME280;5577;42.706;23.160;2023-01-31T13:36:59;93832.63;;;5.36;99.12
11049;BME280;5577;42.706;23.160;2023-01-31T13:39:48;93828.94;;;4.50;100.00
11049;BME280;5577;42.706;23.160;2023-01-31T13:42:33;93833.47;;;3.70;100.00
11049;BME280;5577;42.706;23.160;2023-01-31T13:45:26;93798.88;;;3.30;100.00
11049;BME280;5577;42.706;23.160;2023-01-31T13:48:25;93841.78;;;3.63;100.00
11049;BME280;5577;42.706;23.160;2023-01-31T13:51:16;93844.09;;;3.65;100.00
11049;BME280;5577;42.706;23.160;2023-01-31T13:54:46;93845.03;;;3.43;100.00
11049;BME280;5577;42.706;23.160;2023-01-31T13:57:42;93844.56;;;3.58;100.00
11049;BME280;5577;42.706;23.160;2023-01-31T14:03:19;93845.34;;;3.25;100.00
11049;BME280;5577;42.706;23.160;2023-01-31T14:06:03;93845.94;;;3.30;100.00
11049;BME280;5577;42.706;23.160;2023-01-31T14:11:42;93846.25;;;3.29;100.00
11049;BME280;5577;42.706;23.160;2023-01-31T14:20:33;93851.38;;;2.77;100.00
11049;BME280;5577;42.706;23.160;2023-01-31T14:23:33;93859.06;;;2.74;100.00
11049;BME280;5577;42.706;23.160;2023-01-31T14:29:25;93858.84;;;2.53;100.00
11049;BME280;5577;42.706;23.160;2023-01-31T14:32:28;93867.22;;;2.33;100.00
11049;BME280;5577;42.706;23.160;2023-01-31T14:41:58;93867.28;;;2.11;100.00
11049;BME280;5577;42.706;23.160;2023-01-31T14:47:38;93871.91;;;1.92;100.00
11049;BME280;5577;42.706;23.160;2023-01-31T14:54:00;93892.03;;;1.92;100.00
11049;BME280;5577;42.706;23.160;2023-01-31T14:56:59;93887.50;;;1.84;100.00
11049;BME280;5577;42.706;23.160;2023-01-31T14:59:54;93887.16;;;1.77;100.00
11049;BME280;5577;42.706;23.160;2023-01-31T15:05:50;93902.38;;;1.61;100.00
11049;BME280;5577;42.706;23.160;2023-01-31T15:08:44;93913.22;;;1.55;100.00
11049;BME280;5577;42.706;23.160;2023-01-31T15:11:38;93907.22;;;1.54;100.00
11049;BME280;5577;42.706;23.160;2023-01-31T15:14:31;93914.47;;;1.57;100.00
11049;BME280;5577;42.706;23.160;2023-01-31T15:17:28;93910.41;;;1.65;100.00
11049;BME280;5577;42.706;23.160;2023-01-31T15:20:17;93910.81;;;1.58;100.00
11049;BME280;5577;42.706;23.160;2023-01-31T15:23:04;93916.03;;;1.58;100.00
11049;BME280;5577;42.706;23.160;2023-01-31T15:25:52;93917.66;;;1.54;100.00
11049;BME280;5577;42.706;23.160;2023-01-31T15:28:40;93901.22;;;1.32;100.00
11049;BME280;5577;42.706;23.160;2023-01-31T15:31:47;93922.50;;;1.47;100.00
11049;BME280;5577;42.706;23.160;2023-01-31T15:34:36;93901.16;;;1.23;100.00
11049;BME280;5577;42.706;23.160;2023-01-31T15:37:34;93936.34;;;1.48;100.00
11049;BME280;5577;42.706;23.160;2023-01-31T15:40:21;93934.81;;;1.47;100.00
11049;BME280;5577;42.706;23.160;2023-01-31T15:43:23;93945.69;;;1.49;100.00
11049;BME280;5577;42.706;23.160;2023-01-31T15:49:29;93943.38;;;1.47;100.00
11049;BME280;5577;42.706;23.160;2023-01-31T15:52:19;93951.50;;;1.46;100.00
11049;BME280;5577;42.706;23.160;2023-01-31T15:55:05;93949.88;;;1.50;100.00
11049;BME280;5577;42.706;23.160;2023-01-31T15:57:52;93940.47;;;1.49;100.00
11049;BME280;5577;42.706;23.160;2023-01-31T16:00:40;93953.53;;;1.49;100.00
11049;BME280;5577;42.706;23.160;2023-01-31T16:03:29;93953.72;;;1.52;100.00
11049;BME280;5577;42.706;23.160;2023-01-31T16:06:25;93954.19;;;1.54;100.00
11049;BME280;5577;42.706;23.160;2023-01-31T16:09:22;93958.53;;;1.59;100.00
11049;BME280;5577;42.706;23.160;2023-01-31T16:12:08;93963.88;;;1.54;100.00
11049;BME280;5577;42.706;23.160;2023-01-31T16:14:53;93963.66;;;1.50;100.00
11049;BME280;5577;42.706;23.160;2023-01-31T16:17:42;93973.34;;;1.50;100.00
11049;BME280;5577;42.706;23.160;2023-01-31T16:20:35;93977.19;;;1.52;100.00
11049;BME280;5577;42.706;23.160;2023-01-31T16:23:30;93982.13;;;1.54;100.00
11049;BME280;5577;42.706;23.160;2023-01-31T16:26:20;93941.97;;;1.28;100.00
11049;BME280;5577;42.706;23.160;2023-01-31T16:29:16;93988.50;;;1.48;100.00
11049;BME280;5577;42.706;23.160;2023-01-31T16:32:02;93942.09;;;1.23;100.00
11049;BME280;5577;42.706;23.160;2023-01-31T16:35:01;93997.88;;;1.49;100.00
11049;BME280;5577;42.706;23.160;2023-01-31T16:37:58;93990.94;;;1.44;100.00
11049;BME280;5577;42.706;23.160;2023-01-31T16:40:52;94001.84;;;1.46;100.00
11049;BME280;5577;42.706;23.160;2023-01-31T16:43:40;93997.78;;;1.40;100.00
11049;BME280;5577;42.706;23.160;2023-01-31T16:46:36;94003.78;;;1.41;100.00
11049;BME280;5577;42.706;23.160;2023-01-31T16:49:27;94000.38;;;1.40;100.00
11049;BME280;5577;42.706;23.160;2023-01-31T16:52:27;94011.31;;;1.42;100.00
11049;BME280;5577;42.706;23.160;2023-01-31T16:55:17;94001.38;;;1.44;100.00
11049;BME280;5577;42.706;23.160;2023-01-31T16:58:01;94002.41;;;1.43;100.00